createdAt,value
2019-02-28T00:00:41.770Z,26.80
2019-02-28T00:01:46.311Z,26.90
2019-02-28T00:02:47.428Z,24.70
2019-02-28T00:03:48.846Z,26.07
2019-02-28T00:04:49.977Z,25.08
2019-02-28T00:05:51.116Z,26.12
2019-02-28T00:06:52.272Z,24.50
2019-02-28T00:07:53.421Z,28.35
2019-02-28T00:08:55.230Z,21.20
2019-02-28T00:09:57.489Z,19.15
2019-02-28T00:11:02.037Z,22.27
2019-02-28T00:12:02.423Z,19.85
2019-02-28T00:13:03.856Z,22.30
2019-02-28T00:14:04.999Z,20.12
2019-02-28T00:15:07.631Z,19.37
2019-02-28T00:16:08.790Z,17.42
2019-02-28T00:17:10.325Z,21.33
2019-02-28T00:18:15.203Z,25.25
2019-02-28T00:19:14.824Z,22.62
2019-02-28T00:20:15.974Z,21.73
2019-02-28T00:21:17.223Z,22.65
2019-02-28T00:22:18.662Z,28.50
2019-02-28T00:23:21.935Z,25.90
2019-02-28T00:24:23.484Z,26.12
2019-02-28T00:25:24.625Z,25.88
2019-02-28T00:26:25.770Z,28.90
2019-02-28T00:27:26.913Z,28.20
2019-02-28T00:28:28.155Z,30.88
2019-02-28T00:29:33.362Z,27.95
2019-02-28T00:30:32.741Z,32.00
2019-02-28T00:31:33.890Z,29.67
2019-02-28T00:32:35.342Z,27.60
2019-02-28T00:33:36.538Z,31.65
2019-02-28T00:34:39.226Z,23.00
2019-02-28T00:35:40.874Z,22.25
2019-02-28T00:36:42.562Z,26.30
2019-02-28T00:37:43.701Z,32.60
2019-02-28T00:38:45.180Z,29.65
2019-02-28T00:39:46.320Z,28.32
2019-02-28T00:40:47.467Z,29.65
2019-02-28T00:41:48.908Z,32.50
2019-02-28T00:42:50.808Z,26.97
2019-02-28T00:43:52.668Z,25.12
2019-02-28T00:44:55.731Z,30.40
2019-02-28T00:45:57.035Z,36.28
2019-02-28T00:46:58.188Z,34.50
2019-02-28T00:47:59.677Z,26.33
2019-02-28T00:49:02.126Z,28.87
2019-02-28T00:50:05.368Z,28.92
2019-02-28T00:51:08.137Z,29.82
2019-02-28T00:52:09.378Z,28.85
2019-02-28T00:53:10.516Z,36.20
2019-02-28T00:54:11.905Z,28.40
2019-02-28T00:55:14.536Z,32.33
2019-02-28T00:56:17.615Z,32.63
2019-02-28T00:57:18.953Z,29.70
2019-02-28T00:58:20.529Z,32.70
2019-02-28T00:59:21.776Z,32.25
2019-02-28T01:00:22.911Z,29.12
2019-02-28T01:01:24.057Z,32.23
2019-02-28T01:02:26.098Z,30.95
2019-02-28T01:03:27.624Z,34.00
2019-02-28T01:04:30.026Z,33.45
2019-02-28T01:05:31.740Z,29.80
2019-02-28T01:06:33.589Z,30.97
2019-02-28T01:07:36.978Z,34.88
2019-02-28T01:08:38.112Z,34.80
2019-02-28T01:09:39.246Z,34.20
2019-02-28T01:10:41.034Z,34.27
2019-02-28T01:11:44.756Z,34.30
2019-02-28T01:12:45.222Z,34.33
2019-02-28T01:13:46.649Z,34.67
2019-02-28T01:14:47.846Z,34.80
2019-02-28T01:15:49.318Z,36.00
2019-02-28T01:16:53.001Z,41.13
2019-02-28T01:17:53.857Z,35.70
2019-02-28T01:18:54.999Z,35.80
2019-02-28T01:19:56.140Z,39.25
2019-02-28T01:20:57.268Z,40.75
2019-02-28T01:21:58.415Z,39.10
2019-02-28T01:22:59.550Z,40.90
2019-02-28T01:24:01.802Z,37.75
2019-02-28T01:25:07.113Z,46.18
2019-02-28T01:26:08.329Z,44.35
2019-02-28T01:27:09.482Z,44.08
2019-02-28T01:28:10.829Z,40.20
2019-02-28T01:29:11.948Z,40.17
2019-02-28T01:30:14.427Z,43.65
2019-02-28T01:31:15.949Z,47.60
2019-02-28T01:32:17.125Z,49.30
2019-02-28T01:33:18.260Z,44.50
2019-02-28T01:34:19.398Z,47.55
2019-02-28T01:35:20.532Z,47.20
2019-02-28T01:36:21.673Z,46.28
2019-02-28T01:37:23.762Z,49.30
2019-02-28T01:38:25.232Z,47.35
2019-02-28T01:39:30.018Z,48.15
2019-02-28T01:40:29.792Z,47.80
2019-02-28T01:41:31.260Z,49.48
2019-02-28T01:42:32.404Z,47.27
2019-02-28T01:43:33.536Z,46.68
2019-02-28T01:44:35.799Z,49.80
2019-02-28T01:45:37.707Z,49.70
2019-02-28T01:46:39.178Z,49.30
2019-02-28T01:47:40.318Z,54.80
2019-02-28T01:48:41.456Z,49.45
2019-02-28T01:49:42.593Z,48.30
2019-02-28T01:50:44.025Z,47.35
2019-02-28T01:51:45.210Z,47.13
2019-02-28T01:52:46.348Z,43.33
2019-02-28T01:53:50.375Z,48.08
2019-02-28T01:54:50.717Z,50.40
2019-02-28T01:55:51.856Z,48.70
2019-02-28T01:56:52.994Z,50.60
2019-02-28T01:57:54.138Z,44.18
2019-02-28T01:58:55.542Z,52.83
2019-02-28T01:59:56.685Z,57.38
2019-02-28T02:00:58.202Z,50.28
2019-02-28T02:02:02.461Z,52.03
2019-02-28T02:03:02.618Z,50.90
2019-02-28T02:04:03.765Z,48.02
2019-02-28T02:05:07.857Z,50.65
2019-02-28T02:06:09.003Z,45.90
2019-02-28T02:07:10.149Z,49.33
2019-02-28T02:08:11.286Z,37.55
2019-02-28T02:09:12.416Z,32.08
2019-02-28T02:10:21.210Z,31.23
2019-02-28T02:11:21.268Z,32.88
2019-02-28T02:12:22.689Z,30.57
2019-02-28T02:13:23.959Z,34.73
2019-02-28T02:14:25.105Z,35.25
2019-02-28T02:15:26.245Z,26.05
2019-02-28T02:16:27.897Z,30.97
2019-02-28T02:17:29.048Z,25.92
2019-02-28T02:18:30.505Z,27.87
2019-02-28T02:19:31.638Z,27.93
2019-02-28T02:20:32.774Z,29.95
2019-02-28T02:21:43.010Z,30.17
2019-02-28T02:22:45.331Z,28.10
2019-02-28T02:23:49.662Z,31.50
2019-02-28T02:24:50.044Z,25.48
2019-02-28T02:25:51.291Z,27.22
2019-02-28T02:26:52.429Z,30.75
2019-02-28T02:27:54.043Z,32.45
2019-02-28T02:28:55.249Z,25.92
2019-02-28T02:29:56.385Z,33.80
2019-02-28T02:30:57.531Z,31.48
2019-02-28T02:32:01.339Z,37.50
2019-02-28T02:33:01.708Z,35.33
2019-02-28T02:34:02.841Z,31.65
2019-02-28T02:35:07.854Z,27.75
2019-02-28T02:36:09.259Z,34.27
2019-02-28T02:37:10.496Z,33.38
2019-02-28T02:38:11.637Z,41.95
2019-02-28T02:39:16.345Z,45.30
2019-02-28T02:40:15.949Z,46.33
2019-02-28T02:41:17.197Z,53.23
2019-02-28T02:42:18.334Z,45.88
2019-02-28T02:43:22.135Z,54.23
2019-02-28T02:44:22.558Z,56.95
2019-02-28T02:45:23.693Z,52.67
2019-02-28T02:46:24.826Z,51.90
2019-02-28T02:47:31.415Z,48.58
2019-02-28T02:48:29.006Z,52.48
2019-02-28T02:49:30.720Z,54.30
2019-02-28T02:50:35.918Z,54.77
2019-02-28T02:51:34.885Z,52.48
2019-02-28T02:52:37.061Z,54.40
2019-02-28T02:53:42.041Z,58.58
2019-02-28T02:54:41.586Z,47.53
2019-02-28T02:55:42.724Z,55.00
2019-02-28T02:56:43.994Z,48.42
2019-02-28T02:57:50.518Z,54.93
2019-02-28T02:58:48.517Z,51.65
2019-02-28T02:59:50.006Z,50.08
2019-02-28T03:00:51.570Z,48.60
2019-02-28T03:01:56.242Z,52.08
2019-02-28T03:02:56.223Z,59.70
2019-02-28T03:03:57.364Z,53.78
2019-02-28T03:04:59.517Z,50.25
2019-02-28T03:06:00.757Z,58.20
2019-02-28T03:07:01.892Z,59.93
2019-02-28T03:08:03.255Z,53.25
2019-02-28T03:09:09.820Z,60.45
2019-02-28T03:10:17.232Z,64.82
2019-02-28T03:11:18.245Z,61.73
2019-02-28T03:12:19.629Z,74.97
2019-02-28T03:13:20.771Z,63.42
2019-02-28T03:14:22.251Z,67.35
2019-02-28T03:15:26.841Z,63.23
2019-02-28T03:16:26.721Z,63.28
2019-02-28T03:17:27.904Z,61.53
2019-02-28T03:18:29.049Z,66.45
2019-02-28T03:19:33.524Z,67.05
2019-02-28T03:20:33.355Z,66.00
2019-02-28T03:21:34.489Z,73.47
2019-02-28T03:22:35.923Z,61.75
2019-02-28T03:23:39.803Z,64.35
2019-02-28T03:24:40.108Z,65.28
2019-02-28T03:25:41.580Z,66.70
2019-02-28T03:26:43.446Z,67.80
2019-02-28T03:27:45.067Z,69.85
2019-02-28T03:28:46.207Z,67.78
2019-02-28T03:29:47.364Z,59.95
2019-02-28T03:30:48.586Z,61.60
2019-02-28T03:31:56.796Z,70.78
2019-02-28T03:32:52.763Z,61.90
2019-02-28T03:33:54.223Z,62.13
2019-02-28T03:34:58.442Z,48.15
2019-02-28T03:35:58.698Z,41.33
2019-02-28T03:37:00.210Z,39.18
2019-02-28T03:38:01.623Z,39.58
2019-02-28T03:39:04.959Z,37.28
2019-02-28T03:40:10.397Z,40.38
2019-02-28T03:41:16.305Z,41.75
2019-02-28T03:42:14.615Z,38.63
2019-02-28T03:43:16.090Z,38.70
2019-02-28T03:44:21.350Z,39.15
2019-02-28T03:45:20.735Z,37.33
2019-02-28T03:46:22.256Z,36.98
2019-02-28T03:47:24.174Z,41.10
2019-02-28T03:48:25.647Z,35.80
2019-02-28T03:49:26.773Z,35.10
2019-02-28T03:50:28.226Z,36.77
2019-02-28T03:51:29.631Z,46.58
2019-02-28T03:52:31.203Z,49.10
2019-02-28T03:53:32.345Z,67.92
2019-02-28T03:54:33.475Z,71.28
2019-02-28T03:55:40.124Z,74.30
2019-02-28T03:56:37.981Z,75.78
2019-02-28T03:57:39.447Z,79.12
2019-02-28T03:58:42.850Z,77.47
2019-02-28T03:59:43.727Z,70.45
2019-02-28T04:00:45.190Z,78.87
2019-02-28T04:01:46.748Z,71.87
2019-02-28T04:02:48.165Z,76.82
2019-02-28T04:03:49.611Z,77.10
2019-02-28T04:04:50.950Z,71.57
2019-02-28T04:05:52.173Z,72.00
2019-02-28T04:06:53.627Z,78.67
2019-02-28T04:07:55.037Z,80.15
2019-02-28T04:08:56.616Z,77.17
2019-02-28T04:09:58.164Z,72.97
2019-02-28T04:10:59.608Z,71.47
2019-02-28T04:12:07.294Z,78.07
2019-02-28T04:13:04.931Z,77.55
2019-02-28T04:14:06.364Z,70.10
2019-02-28T04:15:11.337Z,75.92
2019-02-28T04:16:12.647Z,71.17
2019-02-28T04:17:13.773Z,68.20
2019-02-28T04:18:16.809Z,73.95
2019-02-28T04:19:21.611Z,72.20
2019-02-28T04:20:20.985Z,70.15
2019-02-28T04:21:22.159Z,70.57
2019-02-28T04:22:24.014Z,72.58
2019-02-28T04:23:25.286Z,76.25
2019-02-28T04:24:26.417Z,73.80
2019-02-28T04:25:27.554Z,75.12
2019-02-28T04:26:29.697Z,72.87
2019-02-28T04:27:31.026Z,74.05
2019-02-28T04:28:32.565Z,73.50
2019-02-28T04:29:33.701Z,76.42
2019-02-28T04:30:35.090Z,73.50
2019-02-28T04:31:36.224Z,75.28
2019-02-28T04:32:37.344Z,78.67
2019-02-28T04:33:39.314Z,72.62
2019-02-28T04:34:40.641Z,75.40
2019-02-28T04:35:42.167Z,75.57
2019-02-28T04:36:43.297Z,72.42
2019-02-28T04:37:46.757Z,70.65
2019-02-28T04:38:47.509Z,76.95
2019-02-28T04:39:48.637Z,72.80
2019-02-28T04:40:49.785Z,77.53
2019-02-28T04:41:50.916Z,73.05
2019-02-28T04:42:52.322Z,74.05
2019-02-28T04:43:53.598Z,78.95
2019-02-28T04:44:54.852Z,72.20
2019-02-28T04:45:57.700Z,71.65
2019-02-28T04:46:59.311Z,78.35
2019-02-28T04:48:00.441Z,78.28
2019-02-28T04:49:01.881Z,72.50
2019-02-28T04:50:05.317Z,76.72
2019-02-28T04:51:06.810Z,80.85
2019-02-28T04:52:07.947Z,73.47
2019-02-28T04:53:09.386Z,73.95
2019-02-28T04:54:10.534Z,70.47
2019-02-28T04:55:11.681Z,68.90
2019-02-28T04:56:13.216Z,61.85
2019-02-28T04:57:20.685Z,53.98
2019-02-28T04:58:22.428Z,53.45
2019-02-28T04:59:23.664Z,49.70
2019-02-28T05:00:24.873Z,54.10
2019-02-28T05:01:26.039Z,54.27
2019-02-28T05:02:27.168Z,54.03
2019-02-28T05:03:29.220Z,53.23
2019-02-28T05:04:33.250Z,52.00
2019-02-28T05:05:33.756Z,59.08
2019-02-28T05:06:35.028Z,60.38
2019-02-28T05:07:36.284Z,59.80
2019-02-28T05:08:38.895Z,65.70
2019-02-28T05:09:40.571Z,65.20
2019-02-28T05:10:41.722Z,72.12
2019-02-28T05:11:43.397Z,78.57
2019-02-28T05:12:44.588Z,83.10
2019-02-28T05:13:48.750Z,80.12
2019-02-28T05:14:48.975Z,81.02
2019-02-28T05:15:50.108Z,81.40
2019-02-28T05:16:51.236Z,78.72
2019-02-28T05:17:53.048Z,76.10
2019-02-28T05:18:58.265Z,79.97
2019-02-28T05:19:59.118Z,82.67
2019-02-28T05:21:00.316Z,78.97
2019-02-28T05:22:01.544Z,78.95
2019-02-28T05:23:02.974Z,84.95
2019-02-28T05:24:07.712Z,84.72
2019-02-28T05:25:08.912Z,84.28
2019-02-28T05:26:10.049Z,81.12
2019-02-28T05:27:11.454Z,84.07
2019-02-28T05:28:12.654Z,81.25
2019-02-28T05:29:13.796Z,87.75
2019-02-28T05:30:19.542Z,90.42
2019-02-28T05:31:19.103Z,88.55
2019-02-28T05:32:20.237Z,79.85
2019-02-28T05:33:21.373Z,81.45
2019-02-28T05:34:22.764Z,86.57
2019-02-28T05:35:26.690Z,85.60
2019-02-28T05:36:26.938Z,89.15
2019-02-28T05:37:28.146Z,85.03
2019-02-28T05:38:29.664Z,86.65
2019-02-28T05:39:31.703Z,79.17
2019-02-28T05:40:33.145Z,79.20
2019-02-28T05:41:36.177Z,79.30
2019-02-28T05:42:37.319Z,92.60
2019-02-28T05:43:38.452Z,85.45
2019-02-28T05:44:40.413Z,84.40
2019-02-28T05:45:42.173Z,86.72
2019-02-28T05:46:43.631Z,83.78
2019-02-28T05:47:47.203Z,80.30
2019-02-28T05:48:48.458Z,76.90
2019-02-28T05:49:49.601Z,96.28
2019-02-28T05:50:53.241Z,83.17
2019-02-28T05:51:58.801Z,74.67
2019-02-28T05:52:57.182Z,91.45
2019-02-28T05:53:58.708Z,71.72
2019-02-28T05:55:00.320Z,84.67
2019-02-28T05:56:01.617Z,63.17
2019-02-28T05:57:04.646Z,64.70
2019-02-28T05:58:06.100Z,69.17
2019-02-28T05:59:07.230Z,68.30
2019-02-28T06:00:11.576Z,65.45
2019-02-28T06:01:12.721Z,77.15
2019-02-28T06:02:13.945Z,72.27
2019-02-28T06:03:15.149Z,65.90
2019-02-28T06:04:16.286Z,63.70
2019-02-28T06:05:17.846Z,80.03
2019-02-28T06:06:20.140Z,73.10
2019-02-28T06:07:21.854Z,63.60
2019-02-28T06:08:22.990Z,73.13
2019-02-28T06:09:24.119Z,76.40
2019-02-28T06:10:25.268Z,73.25
2019-02-28T06:11:26.416Z,72.90
2019-02-28T06:12:33.087Z,75.80
2019-02-28T06:13:34.446Z,81.15
2019-02-28T06:14:35.581Z,76.72
2019-02-28T06:15:37.211Z,90.22
2019-02-28T06:16:38.501Z,86.17
2019-02-28T06:17:40.042Z,87.88
2019-02-28T06:18:41.177Z,87.47
2019-02-28T06:19:43.647Z,90.67
2019-02-28T06:20:50.895Z,84.67
2019-02-28T06:21:48.398Z,60.50
2019-02-28T06:22:49.806Z,53.98
2019-02-28T06:23:51.249Z,52.60
2019-02-28T06:24:52.762Z,52.40
2019-02-28T06:25:55.720Z,52.83
2019-02-28T06:26:57.176Z,46.02
2019-02-28T06:27:58.656Z,51.55
2019-02-28T06:29:04.596Z,56.25
2019-02-28T06:30:08.743Z,51.02
2019-02-28T06:31:10.161Z,58.45
2019-02-28T06:32:13.547Z,78.10
2019-02-28T06:33:14.427Z,79.75
2019-02-28T06:34:15.680Z,88.60
2019-02-28T06:35:20.249Z,88.67
2019-02-28T06:36:20.516Z,87.55
2019-02-28T06:37:23.418Z,88.78
2019-02-28T06:38:24.686Z,84.75
2019-02-28T06:39:26.842Z,86.72
2019-02-28T06:40:32.586Z,67.92
2019-02-28T06:41:31.497Z,53.42
2019-02-28T06:42:32.641Z,74.42
2019-02-28T06:43:33.774Z,88.82
2019-02-28T06:44:34.912Z,85.77
2019-02-28T06:45:37.601Z,91.32
2019-02-28T06:46:39.788Z,102.12
2019-02-28T06:47:41.149Z,95.15
2019-02-28T06:48:42.284Z,106.52
2019-02-28T06:49:43.887Z,114.97
2019-02-28T06:50:45.592Z,99.03
2019-02-28T06:51:48.355Z,101.27
2019-02-28T06:52:50.161Z,107.22
2019-02-28T06:53:51.301Z,103.97
2019-02-28T06:54:54.271Z,114.10
2019-02-28T06:55:55.592Z,119.00
2019-02-28T06:56:56.879Z,112.68
2019-02-28T06:57:58.796Z,109.32
2019-02-28T06:59:00.073Z,115.60
2019-02-28T07:00:03.314Z,113.25
2019-02-28T07:01:04.458Z,103.53
2019-02-28T07:02:05.971Z,120.82
2019-02-28T07:03:07.396Z,114.35
2019-02-28T07:04:11.479Z,103.85
2019-02-28T07:05:11.600Z,114.05
2019-02-28T07:06:12.750Z,116.47
2019-02-28T07:07:13.888Z,120.05
2019-02-28T07:08:15.014Z,119.60
2019-02-28T07:09:16.154Z,118.00
2019-02-28T07:10:17.387Z,117.05
2019-02-28T07:11:19.916Z,117.60
2019-02-28T07:12:21.166Z,111.55
2019-02-28T07:13:22.299Z,116.67
2019-02-28T07:14:23.430Z,110.32
2019-02-28T07:15:24.991Z,112.50
2019-02-28T07:16:26.215Z,113.10
2019-02-28T07:17:27.449Z,117.60
2019-02-28T07:18:28.750Z,114.45
2019-02-28T07:19:29.996Z,112.72
2019-02-28T07:20:31.160Z,116.70
2019-02-28T07:21:34.439Z,117.05
2019-02-28T07:22:35.422Z,117.03
2019-02-28T07:23:36.828Z,114.85
2019-02-28T07:24:38.269Z,124.95
2019-02-28T07:25:39.770Z,104.27
2019-02-28T07:26:41.218Z,117.60
2019-02-28T07:27:42.733Z,120.72
2019-02-28T07:28:43.895Z,120.50
2019-02-28T07:29:45.032Z,117.60
2019-02-28T07:30:46.276Z,120.15
2019-02-28T07:31:47.413Z,121.13
2019-02-28T07:32:48.544Z,118.62
2019-02-28T07:33:51.364Z,112.90
2019-02-28T07:34:57.743Z,107.32
2019-02-28T07:35:56.096Z,109.32
2019-02-28T07:36:57.229Z,111.35
2019-02-28T07:37:58.360Z,111.50
2019-02-28T07:39:01.344Z,112.08
2019-02-28T07:40:12.588Z,105.03
2019-02-28T07:41:12.537Z,117.65
2019-02-28T07:42:13.677Z,117.47
2019-02-28T07:43:14.817Z,115.08
2019-02-28T07:44:21.074Z,109.22
2019-02-28T07:45:19.093Z,117.25
2019-02-28T07:46:20.299Z,117.08
2019-02-28T07:47:21.433Z,109.03
2019-02-28T07:48:26.847Z,113.83
2019-02-28T07:49:26.036Z,100.02
2019-02-28T07:50:27.280Z,107.95
2019-02-28T07:51:28.501Z,113.40
2019-02-28T07:52:33.457Z,114.20
2019-02-28T07:53:33.301Z,108.50
2019-02-28T07:54:34.536Z,105.65
2019-02-28T07:55:35.685Z,108.05
2019-02-28T07:56:42.640Z,109.67
2019-02-28T07:57:40.202Z,104.78
2019-02-28T07:58:41.343Z,111.22
2019-02-28T07:59:42.715Z,109.60
2019-02-28T08:00:43.916Z,109.52
2019-02-28T08:01:45.342Z,109.65
2019-02-28T08:02:46.573Z,107.27
2019-02-28T08:03:47.707Z,107.45
2019-02-28T08:04:50.806Z,105.35
2019-02-28T08:05:52.231Z,107.50
2019-02-28T08:06:54.805Z,112.75
2019-02-28T08:07:56.218Z,106.37
2019-02-28T08:08:57.351Z,107.35
2019-02-28T08:09:58.485Z,110.57
2019-02-28T08:10:59.619Z,104.67
2019-02-28T08:12:00.764Z,106.45
2019-02-28T08:13:03.102Z,114.08
2019-02-28T08:14:04.353Z,101.20
2019-02-28T08:15:20.932Z,102.92
2019-02-28T08:16:21.171Z,103.30
2019-02-28T08:17:22.318Z,98.90
2019-02-28T08:18:23.460Z,96.28
2019-02-28T08:19:27.189Z,103.53
2019-02-28T08:20:30.613Z,99.87
2019-02-28T08:21:30.809Z,103.10
2019-02-28T08:22:31.974Z,104.87
2019-02-28T08:23:33.530Z,106.12
2019-02-28T08:24:35.848Z,109.40
2019-02-28T08:25:39.664Z,104.20
2019-02-28T08:26:40.374Z,98.15
2019-02-28T08:27:41.820Z,101.67
2019-02-28T08:28:42.961Z,97.10
2019-02-28T08:29:45.636Z,99.80
2019-02-28T08:30:47.438Z,101.07
2019-02-28T08:31:48.833Z,107.30
2019-02-28T08:32:49.991Z,101.10
2019-02-28T08:33:51.490Z,102.32
2019-02-28T08:34:55.560Z,94.62
2019-02-28T08:35:56.318Z,104.97
2019-02-28T08:36:57.461Z,97.37
2019-02-28T08:37:58.593Z,96.30
2019-02-28T08:38:59.721Z,99.80
2019-02-28T08:40:00.857Z,99.40
2019-02-28T08:41:02.396Z,99.40
2019-02-28T08:42:04.833Z,89.80
2019-02-28T08:43:06.253Z,104.67
2019-02-28T08:44:07.760Z,99.65
2019-02-28T08:45:11.848Z,93.67
2019-02-28T08:46:13.867Z,94.35
2019-02-28T08:47:17.915Z,97.57
2019-02-28T08:48:20.189Z,95.83
2019-02-28T08:49:21.326Z,97.47
2019-02-28T08:50:23.785Z,99.52
2019-02-28T08:51:27.795Z,98.42
2019-02-28T08:52:28.751Z,99.13
2019-02-28T08:53:31.686Z,99.80
2019-02-28T08:54:32.916Z,93.55
2019-02-28T08:55:34.203Z,92.55
2019-02-28T08:56:35.944Z,91.60
2019-02-28T08:57:37.093Z,91.82
2019-02-28T08:58:38.572Z,94.22
2019-02-28T08:59:40.221Z,99.42
2019-02-28T09:00:41.451Z,96.97
2019-02-28T09:01:44.239Z,94.03
2019-02-28T09:02:45.533Z,99.47
2019-02-28T09:03:46.664Z,97.67
2019-02-28T09:04:50.897Z,94.15
2019-02-28T09:05:51.098Z,96.20
2019-02-28T09:06:52.235Z,94.75
2019-02-28T09:07:53.665Z,98.25
2019-02-28T09:08:56.582Z,92.70
2019-02-28T09:09:57.836Z,98.30
2019-02-28T09:10:59.281Z,96.37
2019-02-28T09:12:00.422Z,96.20
2019-02-28T09:13:01.581Z,97.90
2019-02-28T09:14:02.714Z,93.47
2019-02-28T09:15:06.712Z,101.70
2019-02-28T09:16:07.849Z,95.97
2019-02-28T09:17:08.994Z,96.15
2019-02-28T09:18:10.518Z,99.47
2019-02-28T09:19:11.655Z,97.70
2019-02-28T09:20:13.911Z,99.65
2019-02-28T09:21:15.419Z,99.95
2019-02-28T09:22:17.025Z,99.85
2019-02-28T09:23:18.198Z,101.33
2019-02-28T09:24:20.536Z,94.35
2019-02-28T09:25:23.354Z,95.12
2019-02-28T09:26:24.586Z,99.58
2019-02-28T09:27:26.041Z,99.45
2019-02-28T09:28:27.186Z,99.77
2019-02-28T09:29:28.610Z,99.42
2019-02-28T09:30:36.809Z,99.10
2019-02-28T09:31:39.073Z,96.67
2019-02-28T09:32:41.013Z,100.75
2019-02-28T09:33:43.355Z,104.97
2019-02-28T09:34:44.488Z,98.45
2019-02-28T09:35:46.593Z,104.75
2019-02-28T09:36:47.972Z,99.70
2019-02-28T09:37:49.242Z,104.05
2019-02-28T09:38:56.845Z,100.33
2019-02-28T09:39:54.267Z,96.22
2019-02-28T09:40:55.661Z,99.03
2019-02-28T09:41:57.604Z,94.32
2019-02-28T09:42:58.756Z,96.08
2019-02-28T09:44:00.888Z,100.40
2019-02-28T09:45:07.853Z,96.15
2019-02-28T09:46:09.201Z,93.00
2019-02-28T09:47:12.365Z,100.10
2019-02-28T09:48:13.573Z,103.22
2019-02-28T09:49:14.708Z,92.67
2019-02-28T09:50:22.468Z,90.53
2019-02-28T09:51:23.853Z,95.35
2019-02-28T09:52:25.246Z,96.95
2019-02-28T09:53:27.039Z,97.62
2019-02-28T09:54:29.906Z,96.15
2019-02-28T09:55:34.066Z,92.30
2019-02-28T09:56:34.260Z,95.05
2019-02-28T09:57:35.774Z,95.57
2019-02-28T09:58:37.206Z,96.08
2019-02-28T09:59:39.130Z,95.67
2019-02-28T10:00:43.294Z,95.92
2019-02-28T10:01:43.881Z,93.82
2019-02-28T10:02:45.169Z,94.35
2019-02-28T10:03:46.570Z,97.20
2019-02-28T10:04:47.769Z,95.42
2019-02-28T10:05:48.905Z,102.90
2019-02-28T10:06:51.547Z,93.60
2019-02-28T10:07:53.065Z,92.00
2019-02-28T10:08:54.617Z,95.35
2019-02-28T10:09:55.947Z,93.35
2019-02-28T10:10:57.383Z,97.97
2019-02-28T10:11:58.593Z,89.72
2019-02-28T10:13:00.027Z,90.50
2019-02-28T10:14:01.178Z,92.55
2019-02-28T10:15:07.208Z,88.55
2019-02-28T10:16:08.589Z,94.00
2019-02-28T10:17:09.718Z,91.85
2019-02-28T10:18:11.172Z,87.22
2019-02-28T10:19:13.372Z,92.78
2019-02-28T10:20:27.148Z,89.15
2019-02-28T10:21:29.416Z,94.03
2019-02-28T10:22:30.901Z,90.00
2019-02-28T10:23:32.346Z,98.60
2019-02-28T10:24:33.785Z,92.42
2019-02-28T10:25:40.990Z,94.15
2019-02-28T10:26:39.262Z,98.12
2019-02-28T10:27:40.973Z,99.05
2019-02-28T10:28:44.361Z,91.67
2019-02-28T10:29:46.607Z,93.95
2019-02-28T10:30:50.171Z,91.60
2019-02-28T10:31:50.928Z,94.97
2019-02-28T10:32:52.145Z,100.12
2019-02-28T10:33:53.288Z,96.65
2019-02-28T10:34:54.763Z,94.55
2019-02-28T10:35:56.004Z,100.30
2019-02-28T10:36:57.141Z,99.65
2019-02-28T10:37:58.981Z,95.62
2019-02-28T10:39:00.428Z,98.75
2019-02-28T10:40:01.665Z,97.70
2019-02-28T10:41:03.210Z,98.55
2019-02-28T10:42:05.049Z,93.30
2019-02-28T10:43:06.982Z,95.05
2019-02-28T10:44:09.130Z,96.72
2019-02-28T10:45:14.186Z,97.33
2019-02-28T10:46:16.943Z,98.62
2019-02-28T10:47:19.597Z,97.72
2019-02-28T10:48:20.726Z,97.27
2019-02-28T10:49:24.087Z,96.60
2019-02-28T10:50:33.212Z,108.63
2019-02-28T10:51:33.078Z,92.35
2019-02-28T10:52:34.988Z,102.72
2019-02-28T10:53:39.399Z,90.42
2019-02-28T10:54:39.941Z,93.85
2019-02-28T10:55:41.173Z,91.80
2019-02-28T10:56:42.605Z,94.85
2019-02-28T10:57:45.341Z,97.30
2019-02-28T10:58:47.139Z,92.47
2019-02-28T10:59:48.546Z,93.22
2019-02-28T11:00:49.959Z,91.95
2019-02-28T11:01:51.643Z,94.67
2019-02-28T11:02:54.171Z,92.62
2019-02-28T11:03:56.469Z,95.32
2019-02-28T11:04:57.650Z,91.25
2019-02-28T11:05:59.265Z,96.70
2019-02-28T11:07:02.234Z,92.78
2019-02-28T11:08:04.789Z,93.42
2019-02-28T11:09:06.428Z,99.50
2019-02-28T11:10:08.717Z,95.75
2019-02-28T11:11:10.593Z,90.85
2019-02-28T11:12:12.401Z,85.83
2019-02-28T11:13:19.133Z,93.78
2019-02-28T11:14:20.701Z,95.20
2019-02-28T11:15:23.588Z,97.95
2019-02-28T11:16:24.840Z,90.92
2019-02-28T11:17:26.088Z,96.67
2019-02-28T11:18:27.344Z,86.78
2019-02-28T11:19:28.488Z,92.85
2019-02-28T11:20:30.280Z,88.75
2019-02-28T11:21:31.704Z,94.28
2019-02-28T11:22:32.846Z,94.67
2019-02-28T11:23:33.991Z,99.70
2019-02-28T11:24:35.409Z,86.67
2019-02-28T11:25:36.745Z,93.65
2019-02-28T11:26:38.184Z,96.02
2019-02-28T11:27:40.030Z,83.78
2019-02-28T11:28:41.169Z,89.52
2019-02-28T11:29:42.742Z,90.80
2019-02-28T11:30:45.575Z,95.77
2019-02-28T11:31:47.017Z,89.15
2019-02-28T11:32:48.292Z,97.92
2019-02-28T11:33:49.418Z,94.20
2019-02-28T11:34:50.590Z,92.45
2019-02-28T11:35:57.665Z,90.62
2019-02-28T11:36:54.885Z,89.20
2019-02-28T11:37:56.285Z,83.78
2019-02-28T11:38:57.526Z,89.70
2019-02-28T11:39:59.094Z,90.15
2019-02-28T11:41:00.500Z,93.33
2019-02-28T11:42:05.206Z,90.12
2019-02-28T11:43:06.461Z,89.62
2019-02-28T11:44:09.248Z,95.85
2019-02-28T11:45:18.591Z,83.62
2019-02-28T11:46:19.858Z,92.47
2019-02-28T11:47:21.096Z,95.87
2019-02-28T11:48:25.233Z,95.57
2019-02-28T11:49:28.670Z,96.22
2019-02-28T11:50:30.613Z,94.97
2019-02-28T11:51:31.752Z,92.17
2019-02-28T11:52:33.252Z,91.17
2019-02-28T11:53:39.314Z,89.77
2019-02-28T11:54:37.528Z,89.22
2019-02-28T11:55:38.864Z,100.72
2019-02-28T11:56:40.011Z,92.62
2019-02-28T11:57:42.052Z,94.70
2019-02-28T11:58:43.421Z,89.90
2019-02-28T11:59:44.673Z,89.37
2019-02-28T12:00:46.193Z,98.90
2019-02-28T12:01:48.494Z,92.05
2019-02-28T12:02:53.292Z,93.65
2019-02-28T12:03:52.978Z,95.10
2019-02-28T12:04:54.117Z,91.80
2019-02-28T12:05:55.252Z,90.38
2019-02-28T12:06:57.485Z,94.25
2019-02-28T12:07:59.435Z,90.77
2019-02-28T12:09:00.769Z,93.90
2019-02-28T12:10:03.865Z,91.93
2019-02-28T12:11:05.002Z,90.42
2019-02-28T12:12:07.341Z,88.27
2019-02-28T12:13:09.522Z,92.62
2019-02-28T12:14:11.013Z,88.42
2019-02-28T12:15:29.352Z,88.23
2019-02-28T12:17:31.588Z,93.62
2019-02-28T12:18:32.725Z,90.45
2019-02-28T12:19:33.882Z,89.85
2019-02-28T12:20:35.024Z,90.17
2019-02-28T12:21:38.883Z,91.82
2019-02-28T12:22:40.286Z,86.53
2019-02-28T12:23:41.426Z,91.65
2019-02-28T12:24:42.567Z,89.15
2019-02-28T12:25:43.705Z,86.95
2019-02-28T12:26:44.837Z,86.55
2019-02-28T12:27:46.269Z,90.47
2019-02-28T12:28:47.708Z,87.72
2019-02-28T12:29:49.963Z,91.40
2019-02-28T12:30:51.218Z,90.47
2019-02-28T12:31:52.354Z,91.25
2019-02-28T12:32:53.890Z,94.97
2019-02-28T12:33:56.735Z,83.87
2019-02-28T12:35:01.372Z,96.40
2019-02-28T12:36:01.478Z,90.65
2019-02-28T12:37:02.740Z,89.70
2019-02-28T12:38:04.820Z,88.55
2019-02-28T12:39:06.430Z,89.42
2019-02-28T12:40:13.638Z,93.37
2019-02-28T12:41:14.769Z,91.22
2019-02-28T12:42:15.898Z,96.28
2019-02-28T12:43:17.024Z,92.20
2019-02-28T12:44:18.163Z,92.05
2019-02-28T12:45:24.426Z,102.80
2019-02-28T12:46:25.092Z,90.00
2019-02-28T12:47:29.479Z,87.08
2019-02-28T12:48:30.809Z,89.80
2019-02-28T12:49:32.024Z,83.75
2019-02-28T12:50:33.574Z,87.02
2019-02-28T12:51:36.458Z,89.35
2019-02-28T12:52:37.743Z,83.37
2019-02-28T12:53:38.861Z,83.92
2019-02-28T12:54:40.857Z,91.63
2019-02-28T12:55:42.352Z,84.20
2019-02-28T12:56:45.157Z,87.97
2019-02-28T12:57:47.085Z,95.80
2019-02-28T12:58:48.494Z,86.00
2019-02-28T12:59:49.648Z,90.22
2019-02-28T13:00:50.897Z,81.97
2019-02-28T13:01:52.218Z,85.60
2019-02-28T13:02:53.725Z,86.53
2019-02-28T13:04:00.204Z,82.70
2019-02-28T13:04:58.081Z,88.75
2019-02-28T13:05:59.241Z,83.25
2019-02-28T13:07:00.368Z,88.45
2019-02-28T13:08:01.506Z,90.03
2019-02-28T13:09:04.242Z,89.37
2019-02-28T13:10:08.789Z,85.30
2019-02-28T13:11:10.021Z,83.05
2019-02-28T13:12:12.138Z,88.60
2019-02-28T13:13:13.677Z,81.53
2019-02-28T13:14:14.838Z,87.57